EWG9MB EDDB-EETN
Flight info
| Callsign | EWG9MB |
|---|---|
| Flight time | 1h 27m |
| Altitude | 37000 |
| Route | GERGA3Q/06R GERGA M725 RENKI L132 DEMUR N746 GORPI DCT ANFEV DCT DIPEB DCT ETHUV DCT ADBIB DCT SULUN |
| Aircraft | A320/M-SDE3FGHIRWY/LB1 |
Departure
| Time | 2026-05-05 14:01 |
|---|---|
| Airport | Berlin Brandenburg Airport (EDDB) |
Arrival
| Time | 2026-05-05 15:28 |
|---|---|
| Airport | Lennart Meri Tallinn Airport (EETN) |
| Time | Latitude | Longitude | Altitude | Speed | Heading |
|---|---|---|---|---|---|
| 2026-05-05 13:29 | 52.36084 | 13.51116 | 159 ft | 0 kts | 339° |
| 2026-05-05 13:49 | 52.36083 | 13.51116 | 155 ft | 1 kts | 339° |
| 2026-05-05 13:49 | 52.36061 | 13.51130 | 154 ft | 4 kts | 339° |
| 2026-05-05 13:50 | 52.36037 | 13.51147 | 154 ft | 4 kts | 330° |
| 2026-05-05 13:50 | 52.36015 | 13.51172 | 154 ft | 4 kts | 306° |
| 2026-05-05 13:50 | 52.36008 | 13.51195 | 154 ft | 4 kts | 268° |
| 2026-05-05 13:50 | 52.36009 | 13.51209 | 154 ft | 0 kts | 249° |
| 2026-05-05 13:53 | 52.36004 | 13.51187 | 154 ft | 11 kts | 248° |
| 2026-05-05 13:53 | 52.35959 | 13.51004 | 154 ft | 19 kts | 249° |
| 2026-05-05 13:54 | 52.35910 | 13.50795 | 154 ft | 20 kts | 249° |
| 2026-05-05 13:54 | 52.35868 | 13.50650 | 154 ft | 8 kts | 223° |
| 2026-05-05 13:54 | 52.35819 | 13.50640 | 154 ft | 7 kts | 165° |
| 2026-05-05 13:54 | 52.35772 | 13.50668 | 154 ft | 7 kts | 159° |
| 2026-05-05 13:55 | 52.35726 | 13.50692 | 154 ft | 7 kts | 173° |
| 2026-05-05 13:55 | 52.35677 | 13.50627 | 157 ft | 16 kts | 248° |
| 2026-05-05 13:55 | 52.35636 | 13.50453 | 154 ft | 16 kts | 249° |
| 2026-05-05 13:55 | 52.35595 | 13.50279 | 154 ft | 16 kts | 249° |
| 2026-05-05 13:56 | 52.35553 | 13.50104 | 154 ft | 17 kts | 249° |
| 2026-05-05 13:56 | 52.35511 | 13.49927 | 154 ft | 17 kts | 249° |
| 2026-05-05 13:56 | 52.35468 | 13.49744 | 154 ft | 18 kts | 249° |
| 2026-05-05 13:56 | 52.35424 | 13.49556 | 154 ft | 18 kts | 249° |
| 2026-05-05 13:57 | 52.35377 | 13.49356 | 154 ft | 19 kts | 249° |
| 2026-05-05 13:57 | 52.35330 | 13.49163 | 154 ft | 18 kts | 247° |
| 2026-05-05 13:57 | 52.35288 | 13.48987 | 154 ft | 16 kts | 249° |
| 2026-05-05 13:57 | 52.35251 | 13.48831 | 154 ft | 14 kts | 249° |
| 2026-05-05 13:58 | 52.35218 | 13.48693 | 154 ft | 12 kts | 248° |
| 2026-05-05 13:58 | 52.35188 | 13.48573 | 154 ft | 11 kts | 244° |
| 2026-05-05 13:58 | 52.35132 | 13.48539 | 154 ft | 8 kts | 158° |
| 2026-05-05 13:58 | 52.35103 | 13.48611 | 154 ft | 8 kts | 105° |
| 2026-05-05 13:59 | 52.35085 | 13.48789 | 154 ft | 11 kts | 98° |
| 2026-05-05 13:59 | 52.35069 | 13.48922 | 154 ft | 12 kts | 123° |
| 2026-05-05 14:00 | 52.35064 | 13.49037 | 154 ft | 9 kts | 68° |
| 2026-05-05 14:00 | 52.35156 | 13.49427 | 154 ft | 73 kts | 69° |
| 2026-05-05 14:00 | 52.35417 | 13.50527 | 155 ft | 134 kts | 69° |
| 2026-05-05 14:00 | 52.35799 | 13.52154 | 415 ft | 159 kts | 74° |
| 2026-05-05 14:01 | 52.35714 | 13.53887 | 1125 ft | 161 kts | 124° |
| 2026-05-05 14:01 | 52.34930 | 13.55172 | 1773 ft | 159 kts | 139° |
| 2026-05-05 14:01 | 52.34065 | 13.56285 | 2332 ft | 157 kts | 141° |
| 2026-05-05 14:01 | 52.33207 | 13.57398 | 2826 ft | 157 kts | 140° |
| 2026-05-05 14:02 | 52.32374 | 13.58568 | 3312 ft | 158 kts | 138° |
| 2026-05-05 14:02 | 52.31514 | 13.59870 | 3518 ft | 179 kts | 134° |
| 2026-05-05 14:02 | 52.30888 | 13.61714 | 3709 ft | 198 kts | 99° |
| 2026-05-05 14:02 | 52.31046 | 13.63994 | 3937 ft | 210 kts | 69° |
| 2026-05-05 14:03 | 52.31615 | 13.66268 | 4135 ft | 224 kts | 68° |
| 2026-05-05 14:03 | 52.32136 | 13.68791 | 4293 ft | 244 kts | 72° |
| 2026-05-05 14:03 | 52.32619 | 13.71431 | 5153 ft | 243 kts | 73° |
| 2026-05-05 14:03 | 52.32992 | 13.74151 | 5899 ft | 248 kts | 88° |
| 2026-05-05 14:04 | 52.32891 | 13.77052 | 6363 ft | 267 kts | 96° |
| 2026-05-05 14:04 | 52.32721 | 13.80198 | 6792 ft | 287 kts | 94° |
| 2026-05-05 14:04 | 52.32870 | 13.83449 | 7557 ft | 291 kts | 74° |
| 2026-05-05 14:04 | 52.33747 | 13.86386 | 8323 ft | 294 kts | 49° |
| 2026-05-05 14:05 | 52.35335 | 13.88455 | 9132 ft | 294 kts | 23° |
| 2026-05-05 14:05 | 52.37252 | 13.89597 | 9926 ft | 296 kts | 16° |
| 2026-05-05 14:05 | 52.39255 | 13.90704 | 10332 ft | 314 kts | 17° |
| 2026-05-05 14:05 | 52.41401 | 13.91912 | 10574 ft | 337 kts | 17° |
| 2026-05-05 14:06 | 52.43652 | 13.93198 | 11130 ft | 346 kts | 17° |
| 2026-05-05 14:06 | 52.45941 | 13.94520 | 11828 ft | 351 kts | 17° |
| 2026-05-05 14:06 | 52.48259 | 13.95860 | 12521 ft | 356 kts | 17° |
| 2026-05-05 14:06 | 52.50615 | 13.97224 | 13204 ft | 361 kts | 17° |
| 2026-05-05 14:07 | 52.52997 | 13.98602 | 13858 ft | 365 kts | 17° |
| 2026-05-05 14:07 | 52.55408 | 13.99996 | 14456 ft | 369 kts | 17° |
| 2026-05-05 14:07 | 52.57850 | 14.01374 | 15055 ft | 372 kts | 13° |
| 2026-05-05 14:07 | 52.60384 | 14.02198 | 15652 ft | 372 kts | 2° |
| 2026-05-05 14:08 | 52.62975 | 14.02538 | 16249 ft | 376 kts | 6° |
| 2026-05-05 14:08 | 52.65518 | 14.03756 | 16853 ft | 384 kts | 16° |
| 2026-05-05 14:08 | 52.68012 | 14.05256 | 17452 ft | 388 kts | 18° |
| 2026-05-05 14:08 | 52.70545 | 14.06860 | 18046 ft | 391 kts | 18° |
| 2026-05-05 14:09 | 52.73101 | 14.08482 | 18565 ft | 395 kts | 18° |
| 2026-05-05 14:09 | 52.75683 | 14.10085 | 19060 ft | 398 kts | 17° |
| 2026-05-05 14:09 | 52.78298 | 14.11666 | 19566 ft | 401 kts | 17° |
| 2026-05-05 14:09 | 52.80935 | 14.13227 | 20066 ft | 404 kts | 16° |
| 2026-05-05 14:10 | 52.83604 | 14.14788 | 20558 ft | 408 kts | 16° |
| 2026-05-05 14:10 | 52.86287 | 14.16355 | 21042 ft | 411 kts | 16° |
| 2026-05-05 14:10 | 52.88996 | 14.17943 | 21532 ft | 414 kts | 16° |
| 2026-05-05 14:10 | 52.91722 | 14.19548 | 22013 ft | 418 kts | 16° |
| 2026-05-05 14:11 | 52.94476 | 14.21178 | 22480 ft | 421 kts | 16° |
| 2026-05-05 14:11 | 52.97244 | 14.22825 | 22939 ft | 424 kts | 16° |
| 2026-05-05 14:11 | 53.00033 | 14.24487 | 23388 ft | 428 kts | 16° |
| 2026-05-05 14:11 | 53.02849 | 14.26166 | 23766 ft | 431 kts | 16° |
| 2026-05-05 14:12 | 53.05677 | 14.27855 | 24141 ft | 433 kts | 16° |
| 2026-05-05 14:12 | 53.08525 | 14.29559 | 24525 ft | 436 kts | 15° |
| 2026-05-05 14:12 | 53.11382 | 14.31268 | 24897 ft | 438 kts | 15° |
| 2026-05-05 14:12 | 53.14261 | 14.32990 | 25298 ft | 441 kts | 15° |
| 2026-05-05 14:13 | 53.17121 | 14.34701 | 25709 ft | 444 kts | 15° |
| 2026-05-05 14:13 | 53.20038 | 14.36448 | 26146 ft | 446 kts | 15° |
| 2026-05-05 14:13 | 53.22973 | 14.38210 | 26556 ft | 449 kts | 15° |
| 2026-05-05 14:13 | 53.25921 | 14.39984 | 26929 ft | 451 kts | 15° |
| 2026-05-05 14:14 | 53.28875 | 14.41807 | 27278 ft | 454 kts | 16° |
| 2026-05-05 14:14 | 53.31815 | 14.43804 | 27631 ft | 458 kts | 18° |
| 2026-05-05 14:14 | 53.34751 | 14.45949 | 27973 ft | 461 kts | 19° |
| 2026-05-05 14:14 | 53.37681 | 14.48177 | 28335 ft | 464 kts | 19° |
| 2026-05-05 14:15 | 53.40635 | 14.50440 | 28612 ft | 468 kts | 19° |
| 2026-05-05 14:15 | 53.43603 | 14.52694 | 28914 ft | 470 kts | 19° |
| 2026-05-05 14:15 | 53.46607 | 14.54940 | 29263 ft | 473 kts | 19° |
| 2026-05-05 14:15 | 53.49624 | 14.57169 | 29602 ft | 475 kts | 18° |
| 2026-05-05 14:16 | 53.52663 | 14.59396 | 29897 ft | 477 kts | 18° |
| 2026-05-05 14:16 | 53.55713 | 14.61627 | 30150 ft | 479 kts | 18° |
| 2026-05-05 14:16 | 53.58773 | 14.63875 | 30404 ft | 481 kts | 18° |
| 2026-05-05 14:16 | 53.61847 | 14.66146 | 30691 ft | 483 kts | 18° |
| 2026-05-05 14:17 | 53.64896 | 14.68407 | 30941 ft | 485 kts | 18° |
| 2026-05-05 14:17 | 53.67988 | 14.70703 | 31222 ft | 486 kts | 18° |
| 2026-05-05 14:17 | 53.71078 | 14.72999 | 31599 ft | 484 kts | 18° |
| 2026-05-05 14:17 | 53.74155 | 14.75294 | 31980 ft | 483 kts | 18° |
| 2026-05-05 14:18 | 53.77223 | 14.77587 | 32350 ft | 482 kts | 19° |
| 2026-05-05 14:18 | 53.80283 | 14.79880 | 32728 ft | 481 kts | 19° |
| 2026-05-05 14:18 | 53.83342 | 14.82175 | 33102 ft | 480 kts | 19° |
| 2026-05-05 14:18 | 53.86389 | 14.84463 | 33504 ft | 478 kts | 19° |
| 2026-05-05 14:19 | 53.89428 | 14.86746 | 33884 ft | 477 kts | 19° |
| 2026-05-05 14:19 | 53.92458 | 14.89023 | 34186 ft | 476 kts | 19° |
| 2026-05-05 14:19 | 53.95485 | 14.91298 | 34472 ft | 475 kts | 19° |
| 2026-05-05 14:19 | 53.98504 | 14.93573 | 34737 ft | 475 kts | 19° |
| 2026-05-05 14:20 | 54.01519 | 14.95852 | 34993 ft | 474 kts | 19° |
| 2026-05-05 14:20 | 54.04534 | 14.98141 | 35251 ft | 474 kts | 19° |
| 2026-05-05 14:20 | 54.07544 | 15.00430 | 35493 ft | 473 kts | 19° |
| 2026-05-05 14:20 | 54.10552 | 15.02715 | 35747 ft | 473 kts | 19° |
| 2026-05-05 14:21 | 54.13522 | 15.04963 | 35992 ft | 473 kts | 19° |
| 2026-05-05 14:21 | 54.16526 | 15.07235 | 36219 ft | 472 kts | 19° |
| 2026-05-05 14:21 | 54.19531 | 15.09509 | 36441 ft | 472 kts | 19° |
| 2026-05-05 14:21 | 54.22530 | 15.11778 | 36663 ft | 471 kts | 19° |
| 2026-05-05 14:22 | 54.25532 | 15.14049 | 36854 ft | 471 kts | 19° |
| 2026-05-05 14:22 | 54.28529 | 15.16323 | 36925 ft | 470 kts | 19° |
| 2026-05-05 14:22 | 54.34496 | 15.20887 | 36923 ft | 469 kts | 20° |
| 2026-05-05 14:23 | 54.40458 | 15.25457 | 36927 ft | 469 kts | 20° |
| 2026-05-05 14:23 | 54.46420 | 15.30055 | 36927 ft | 469 kts | 20° |
| 2026-05-05 14:24 | 54.52378 | 15.34675 | 36928 ft | 469 kts | 20° |
| 2026-05-05 14:24 | 54.58295 | 15.39281 | 36953 ft | 469 kts | 20° |
| 2026-05-05 14:25 | 54.64247 | 15.43917 | 36951 ft | 469 kts | 20° |
| 2026-05-05 14:25 | 54.70197 | 15.48565 | 36948 ft | 469 kts | 20° |
| 2026-05-05 14:26 | 54.76142 | 15.53240 | 36943 ft | 469 kts | 20° |
| 2026-05-05 14:26 | 54.82097 | 15.57925 | 36949 ft | 469 kts | 20° |
| 2026-05-05 14:27 | 54.88041 | 15.62625 | 36948 ft | 469 kts | 21° |
| 2026-05-05 14:27 | 54.93527 | 15.68863 | 36942 ft | 476 kts | 40° |
| 2026-05-05 14:28 | 54.98176 | 15.77021 | 36933 ft | 478 kts | 43° |
| 2026-05-05 14:28 | 55.02817 | 15.85314 | 36933 ft | 478 kts | 43° |
| 2026-05-05 14:29 | 55.07461 | 15.93621 | 36933 ft | 478 kts | 43° |
| 2026-05-05 14:29 | 55.12107 | 16.01947 | 36928 ft | 478 kts | 43° |
| 2026-05-05 14:30 | 55.16739 | 16.10304 | 36927 ft | 478 kts | 44° |
| 2026-05-05 14:30 | 55.21364 | 16.18677 | 36930 ft | 478 kts | 44° |
| 2026-05-05 14:31 | 55.25997 | 16.27055 | 36955 ft | 479 kts | 43° |
| 2026-05-05 14:31 | 55.30613 | 16.35488 | 36948 ft | 479 kts | 44° |
| 2026-05-05 14:32 | 55.35217 | 16.43934 | 36942 ft | 479 kts | 44° |
| 2026-05-05 14:32 | 55.39832 | 16.52389 | 36939 ft | 479 kts | 44° |
| 2026-05-05 14:33 | 55.44415 | 16.60813 | 36954 ft | 479 kts | 44° |
| 2026-05-05 14:33 | 55.49022 | 16.69317 | 36948 ft | 479 kts | 44° |
| 2026-05-05 14:34 | 55.53620 | 16.77840 | 36938 ft | 479 kts | 44° |
| 2026-05-05 14:34 | 55.58204 | 16.86367 | 36934 ft | 479 kts | 44° |
| 2026-05-05 14:35 | 55.62783 | 16.94925 | 36931 ft | 478 kts | 44° |
| 2026-05-05 14:35 | 55.67350 | 17.03494 | 36943 ft | 478 kts | 44° |
| 2026-05-05 14:36 | 55.71915 | 17.12088 | 36933 ft | 478 kts | 44° |
| 2026-05-05 14:36 | 55.76471 | 17.20702 | 36921 ft | 479 kts | 44° |
| 2026-05-05 14:37 | 55.81045 | 17.29301 | 36915 ft | 478 kts | 43° |
| 2026-05-05 14:37 | 55.84910 | 17.36315 | 36911 ft | 478 kts | 43° |
| 2026-05-05 14:38 | 55.90359 | 17.46102 | 36935 ft | 478 kts | 43° |
| 2026-05-05 14:38 | 55.94232 | 17.53136 | 36913 ft | 478 kts | 43° |
| 2026-05-05 14:39 | 55.98868 | 17.61656 | 36912 ft | 478 kts | 43° |
| 2026-05-05 14:39 | 56.03492 | 17.70197 | 36911 ft | 478 kts | 43° |
| 2026-05-05 14:40 | 56.08115 | 17.78765 | 36910 ft | 478 kts | 43° |
| 2026-05-05 14:40 | 56.12744 | 17.87353 | 36932 ft | 478 kts | 43° |
| 2026-05-05 14:41 | 56.17360 | 17.95963 | 36927 ft | 478 kts | 43° |
| 2026-05-05 14:41 | 56.21906 | 18.04708 | 36907 ft | 479 kts | 45° |
| 2026-05-05 14:42 | 56.26358 | 18.13657 | 36905 ft | 480 kts | 46° |
| 2026-05-05 14:42 | 56.30791 | 18.22661 | 36934 ft | 480 kts | 46° |
| 2026-05-05 14:43 | 56.35242 | 18.31642 | 36920 ft | 480 kts | 45° |
| 2026-05-05 14:43 | 56.39702 | 18.40620 | 36913 ft | 480 kts | 45° |
| 2026-05-05 14:44 | 56.44155 | 18.49642 | 36915 ft | 481 kts | 46° |
| 2026-05-05 14:44 | 56.48568 | 18.58627 | 36916 ft | 481 kts | 46° |
| 2026-05-05 14:45 | 56.53017 | 18.67698 | 36941 ft | 481 kts | 46° |
| 2026-05-05 14:45 | 56.57456 | 18.76793 | 36925 ft | 482 kts | 46° |
| 2026-05-05 14:46 | 56.61895 | 18.85934 | 36923 ft | 482 kts | 46° |
| 2026-05-05 14:46 | 56.66302 | 18.95033 | 36902 ft | 483 kts | 46° |
| 2026-05-05 14:47 | 56.70739 | 19.04217 | 36900 ft | 483 kts | 46° |
| 2026-05-05 14:47 | 56.75168 | 19.13443 | 36924 ft | 483 kts | 46° |
| 2026-05-05 14:48 | 56.79589 | 19.22690 | 36921 ft | 483 kts | 46° |
| 2026-05-05 14:48 | 56.84010 | 19.31958 | 36918 ft | 484 kts | 46° |
| 2026-05-05 14:49 | 56.88426 | 19.41254 | 36916 ft | 484 kts | 46° |
| 2026-05-05 14:49 | 56.92837 | 19.50559 | 36915 ft | 484 kts | 46° |
| 2026-05-05 14:50 | 56.97210 | 19.59842 | 36934 ft | 484 kts | 46° |
| 2026-05-05 14:50 | 57.01603 | 19.69211 | 36922 ft | 484 kts | 46° |
| 2026-05-05 14:51 | 57.05994 | 19.78611 | 36916 ft | 484 kts | 47° |
| 2026-05-05 14:51 | 57.10375 | 19.88038 | 36914 ft | 484 kts | 47° |
| 2026-05-05 14:52 | 57.14753 | 19.97479 | 36896 ft | 484 kts | 47° |
| 2026-05-05 14:52 | 57.19124 | 20.06932 | 36899 ft | 484 kts | 47° |
| 2026-05-05 14:53 | 57.23459 | 20.16362 | 36896 ft | 484 kts | 47° |
| 2026-05-05 14:53 | 57.27809 | 20.25863 | 36897 ft | 484 kts | 47° |
| 2026-05-05 14:54 | 57.32152 | 20.35380 | 36901 ft | 484 kts | 47° |
| 2026-05-05 14:54 | 57.36489 | 20.44922 | 36925 ft | 484 kts | 47° |
| 2026-05-05 14:55 | 57.40826 | 20.54511 | 36916 ft | 485 kts | 47° |
| 2026-05-05 14:55 | 57.45157 | 20.64111 | 36908 ft | 485 kts | 47° |
| 2026-05-05 14:56 | 57.49478 | 20.73731 | 36908 ft | 485 kts | 47° |
| 2026-05-05 14:56 | 57.53800 | 20.83390 | 36903 ft | 485 kts | 48° |
| 2026-05-05 14:57 | 57.58079 | 20.93002 | 36916 ft | 485 kts | 48° |
| 2026-05-05 14:57 | 57.62384 | 21.02709 | 36898 ft | 486 kts | 48° |
| 2026-05-05 14:58 | 57.66686 | 21.12452 | 36893 ft | 486 kts | 48° |
| 2026-05-05 14:58 | 57.70985 | 21.22218 | 36891 ft | 486 kts | 48° |
| 2026-05-05 14:59 | 57.75286 | 21.32004 | 36891 ft | 486 kts | 48° |
| 2026-05-05 14:59 | 57.79568 | 21.41821 | 36916 ft | 487 kts | 48° |
| 2026-05-05 15:00 | 57.83117 | 21.50011 | 36899 ft | 487 kts | 48° |
| 2026-05-05 15:00 | 57.88084 | 21.61503 | 36875 ft | 487 kts | 48° |
| 2026-05-05 15:01 | 57.92357 | 21.71411 | 36892 ft | 488 kts | 48° |
| 2026-05-05 15:01 | 57.96624 | 21.81331 | 36878 ft | 488 kts | 49° |
| 2026-05-05 15:02 | 58.00892 | 21.91320 | 36635 ft | 490 kts | 49° |
| 2026-05-05 15:02 | 58.03028 | 21.96347 | 36340 ft | 491 kts | 49° |
| 2026-05-05 15:02 | 58.05161 | 22.01374 | 36086 ft | 490 kts | 49° |
| 2026-05-05 15:03 | 58.07291 | 22.06394 | 35832 ft | 489 kts | 49° |
| 2026-05-05 15:03 | 58.09418 | 22.11416 | 35581 ft | 488 kts | 49° |
| 2026-05-05 15:03 | 58.11538 | 22.16294 | 35331 ft | 485 kts | 47° |
| 2026-05-05 15:03 | 58.13731 | 22.21123 | 35062 ft | 481 kts | 46° |
| 2026-05-05 15:04 | 58.15940 | 22.25857 | 34569 ft | 478 kts | 45° |
| 2026-05-05 15:04 | 58.18150 | 22.30547 | 34056 ft | 476 kts | 45° |
| 2026-05-05 15:04 | 58.20349 | 22.35229 | 33509 ft | 474 kts | 45° |
| 2026-05-05 15:04 | 58.22523 | 22.39901 | 33010 ft | 471 kts | 45° |
| 2026-05-05 15:05 | 58.26796 | 22.49227 | 32034 ft | 465 kts | 46° |
| 2026-05-05 15:05 | 58.28899 | 22.53870 | 31565 ft | 462 kts | 46° |
| 2026-05-05 15:05 | 58.30988 | 22.58493 | 31092 ft | 459 kts | 46° |
| 2026-05-05 15:06 | 58.33063 | 22.63092 | 30619 ft | 456 kts | 46° |
| 2026-05-05 15:06 | 58.35124 | 22.67662 | 30158 ft | 454 kts | 46° |
| 2026-05-05 15:06 | 58.37176 | 22.72214 | 29636 ft | 451 kts | 46° |
| 2026-05-05 15:06 | 58.39210 | 22.76737 | 29205 ft | 446 kts | 46° |
| 2026-05-05 15:07 | 58.41214 | 22.81201 | 28777 ft | 441 kts | 46° |
| 2026-05-05 15:07 | 58.43206 | 22.85644 | 28351 ft | 438 kts | 45° |
| 2026-05-05 15:07 | 58.45176 | 22.90038 | 27931 ft | 434 kts | 45° |
| 2026-05-05 15:07 | 58.47133 | 22.94406 | 27515 ft | 430 kts | 45° |
| 2026-05-05 15:08 | 58.49071 | 22.98742 | 27075 ft | 427 kts | 45° |
| 2026-05-05 15:08 | 58.50991 | 23.03049 | 26673 ft | 424 kts | 45° |
| 2026-05-05 15:08 | 58.52894 | 23.07336 | 26260 ft | 421 kts | 45° |
| 2026-05-05 15:08 | 58.54761 | 23.11550 | 25813 ft | 418 kts | 45° |
| 2026-05-05 15:09 | 58.56634 | 23.15783 | 25411 ft | 416 kts | 45° |
| 2026-05-05 15:09 | 58.58506 | 23.19998 | 24969 ft | 414 kts | 45° |
| 2026-05-05 15:09 | 58.60394 | 23.24182 | 24531 ft | 413 kts | 44° |
| 2026-05-05 15:09 | 58.62282 | 23.28335 | 24087 ft | 412 kts | 44° |
| 2026-05-05 15:10 | 58.64169 | 23.32484 | 23642 ft | 412 kts | 44° |
| 2026-05-05 15:10 | 58.66059 | 23.36646 | 23134 ft | 413 kts | 44° |
| 2026-05-05 15:10 | 58.67932 | 23.40804 | 22689 ft | 410 kts | 45° |
| 2026-05-05 15:10 | 58.69797 | 23.44965 | 22247 ft | 408 kts | 45° |
| 2026-05-05 15:11 | 58.71642 | 23.49084 | 21809 ft | 406 kts | 45° |
| 2026-05-05 15:11 | 58.73480 | 23.53191 | 21378 ft | 404 kts | 45° |
| 2026-05-05 15:11 | 58.75308 | 23.57286 | 20950 ft | 402 kts | 45° |
| 2026-05-05 15:11 | 58.77099 | 23.61306 | 20529 ft | 400 kts | 45° |
| 2026-05-05 15:12 | 58.78909 | 23.65372 | 20113 ft | 398 kts | 45° |
| 2026-05-05 15:12 | 58.80709 | 23.69428 | 19695 ft | 397 kts | 45° |
| 2026-05-05 15:12 | 58.82503 | 23.73480 | 19283 ft | 396 kts | 45° |
| 2026-05-05 15:12 | 58.84292 | 23.77525 | 18903 ft | 395 kts | 45° |
| 2026-05-05 15:13 | 58.86076 | 23.81563 | 18459 ft | 395 kts | 45° |
| 2026-05-05 15:13 | 58.87858 | 23.85599 | 18105 ft | 392 kts | 45° |
| 2026-05-05 15:13 | 58.89611 | 23.89585 | 17780 ft | 388 kts | 45° |
| 2026-05-05 15:13 | 58.91356 | 23.93558 | 17382 ft | 386 kts | 46° |
| 2026-05-05 15:14 | 58.93083 | 23.97505 | 16995 ft | 384 kts | 46° |
| 2026-05-05 15:14 | 58.94786 | 24.01406 | 16607 ft | 382 kts | 46° |
| 2026-05-05 15:14 | 58.96499 | 24.05338 | 16218 ft | 381 kts | 47° |
| 2026-05-05 15:14 | 58.98014 | 24.09558 | 15822 ft | 382 kts | 57° |
| 2026-05-05 15:15 | 58.99386 | 24.13973 | 15438 ft | 381 kts | 57° |
| 2026-05-05 15:15 | 59.00755 | 24.18373 | 15055 ft | 380 kts | 57° |
| 2026-05-05 15:15 | 59.02122 | 24.22766 | 14674 ft | 379 kts | 57° |
| 2026-05-05 15:15 | 59.03485 | 24.27154 | 14280 ft | 379 kts | 57° |
| 2026-05-05 15:16 | 59.04841 | 24.31527 | 13915 ft | 377 kts | 57° |
| 2026-05-05 15:16 | 59.06195 | 24.35903 | 13495 ft | 378 kts | 57° |
| 2026-05-05 15:16 | 59.07544 | 24.40273 | 13093 ft | 376 kts | 57° |
| 2026-05-05 15:16 | 59.08882 | 24.44622 | 12710 ft | 373 kts | 57° |
| 2026-05-05 15:17 | 59.10206 | 24.48944 | 12311 ft | 371 kts | 58° |
| 2026-05-05 15:17 | 59.11525 | 24.53259 | 11913 ft | 369 kts | 58° |
| 2026-05-05 15:17 | 59.12834 | 24.57539 | 11515 ft | 368 kts | 58° |
| 2026-05-05 15:17 | 59.14141 | 24.61812 | 11113 ft | 366 kts | 58° |
| 2026-05-05 15:18 | 59.15442 | 24.66064 | 10721 ft | 364 kts | 58° |
| 2026-05-05 15:18 | 59.16734 | 24.70297 | 10311 ft | 363 kts | 58° |
| 2026-05-05 15:18 | 59.18017 | 24.74513 | 10051 ft | 357 kts | 58° |
| 2026-05-05 15:18 | 59.19262 | 24.78613 | 9925 ft | 346 kts | 58° |
| 2026-05-05 15:19 | 59.20478 | 24.82624 | 9661 ft | 341 kts | 58° |
| 2026-05-05 15:19 | 59.21676 | 24.86577 | 9237 ft | 336 kts | 58° |
| 2026-05-05 15:19 | 59.22855 | 24.90480 | 8603 ft | 331 kts | 58° |
| 2026-05-05 15:19 | 59.24012 | 24.94330 | 7990 ft | 326 kts | 58° |
| 2026-05-05 15:20 | 59.25147 | 24.98110 | 7443 ft | 319 kts | 58° |
| 2026-05-05 15:20 | 59.26251 | 25.01790 | 7016 ft | 308 kts | 58° |
| 2026-05-05 15:20 | 59.27317 | 25.05342 | 6616 ft | 297 kts | 58° |
| 2026-05-05 15:20 | 59.28356 | 25.08815 | 6195 ft | 296 kts | 57° |
| 2026-05-05 15:21 | 59.29396 | 25.12297 | 5767 ft | 296 kts | 58° |
| 2026-05-05 15:21 | 59.30429 | 25.15758 | 5487 ft | 290 kts | 57° |
| 2026-05-05 15:21 | 59.31462 | 25.19050 | 5312 ft | 278 kts | 49° |
| 2026-05-05 15:21 | 59.32815 | 25.21607 | 5139 ft | 266 kts | 30° |
| 2026-05-05 15:22 | 59.34413 | 25.23229 | 4814 ft | 262 kts | 13° |
| 2026-05-05 15:22 | 59.36180 | 25.23853 | 4382 ft | 251 kts | 356° |
| 2026-05-05 15:22 | 59.37916 | 25.23898 | 3763 ft | 248 kts | 355° |
| 2026-05-05 15:22 | 59.39535 | 25.23349 | 3434 ft | 225 kts | 328° |
| 2026-05-05 15:23 | 59.40653 | 25.21515 | 3290 ft | 199 kts | 301° |
| 2026-05-05 15:23 | 59.41139 | 25.19124 | 3176 ft | 184 kts | 276° |
| 2026-05-05 15:23 | 59.41176 | 25.16651 | 3083 ft | 179 kts | 271° |
| 2026-05-05 15:23 | 59.41191 | 25.14187 | 2965 ft | 179 kts | 270° |
| 2026-05-05 15:24 | 59.41206 | 25.11830 | 2740 ft | 167 kts | 270° |
| 2026-05-05 15:24 | 59.41214 | 25.10358 | 2586 ft | 159 kts | 270° |
| 2026-05-05 15:24 | 59.41224 | 25.08262 | 2382 ft | 149 kts | 271° |
| 2026-05-05 15:24 | 59.41234 | 25.06265 | 2185 ft | 144 kts | 271° |
| 2026-05-05 15:25 | 59.41243 | 25.04350 | 2006 ft | 134 kts | 271° |
| 2026-05-05 15:25 | 59.41252 | 25.02558 | 1812 ft | 129 kts | 271° |
| 2026-05-05 15:25 | 59.41260 | 25.00818 | 1637 ft | 126 kts | 271° |
| 2026-05-05 15:25 | 59.41268 | 24.99096 | 1463 ft | 125 kts | 271° |
| 2026-05-05 15:26 | 59.41276 | 24.97389 | 1291 ft | 125 kts | 272° |
| 2026-05-05 15:26 | 59.41290 | 24.95709 | 1136 ft | 124 kts | 271° |
| 2026-05-05 15:26 | 59.41294 | 24.94009 | 935 ft | 124 kts | 271° |
| 2026-05-05 15:26 | 59.41298 | 24.92315 | 759 ft | 124 kts | 271° |
| 2026-05-05 15:27 | 59.41304 | 24.90619 | 569 ft | 124 kts | 271° |
| 2026-05-05 15:27 | 59.41315 | 24.88932 | 409 ft | 124 kts | 270° |
| 2026-05-05 15:27 | 59.41319 | 24.87245 | 242 ft | 123 kts | 269° |
| 2026-05-05 15:27 | 59.41322 | 24.85629 | 166 ft | 107 kts | 270° |
| 2026-05-05 15:28 | 59.41322 | 24.84464 | 161 ft | 61 kts | 270° |
| 2026-05-05 15:28 | 59.41324 | 24.83825 | 164 ft | 40 kts | 270° |
| 2026-05-05 15:28 | 59.41325 | 24.83314 | 164 ft | 35 kts | 270° |
| 2026-05-05 15:28 | 59.41335 | 24.82870 | 161 ft | 30 kts | 281° |
| 2026-05-05 15:29 | 59.41404 | 24.82526 | 161 ft | 25 kts | 300° |
| 2026-05-05 15:29 | 59.41444 | 24.82389 | 162 ft | 0 kts | 300° |
| 2026-05-05 15:30 | 59.41446 | 24.82382 | 162 ft | 3 kts | 300° |
| 2026-05-05 15:30 | 59.41466 | 24.82314 | 162 ft | 9 kts | 300° |
| 2026-05-05 15:30 | 59.41497 | 24.82179 | 162 ft | 12 kts | 284° |
| 2026-05-05 15:30 | 59.41503 | 24.82008 | 162 ft | 13 kts | 271° |
| 2026-05-05 15:31 | 59.41505 | 24.81815 | 162 ft | 15 kts | 270° |
| 2026-05-05 15:31 | 59.41504 | 24.81604 | 162 ft | 16 kts | 270° |
| 2026-05-05 15:31 | 59.41504 | 24.81379 | 162 ft | 17 kts | 270° |
| 2026-05-05 15:31 | 59.41505 | 24.81143 | 162 ft | 18 kts | 270° |
| 2026-05-05 15:32 | 59.41506 | 24.80900 | 162 ft | 18 kts | 270° |
| 2026-05-05 15:32 | 59.41506 | 24.80653 | 162 ft | 15 kts | 270° |
| 2026-05-05 15:32 | 59.41542 | 24.80516 | 162 ft | 12 kts | 345° |
| 2026-05-05 15:32 | 59.41629 | 24.80511 | 162 ft | 11 kts | 1° |
| 2026-05-05 15:33 | 59.41689 | 24.80502 | 162 ft | 8 kts | 339° |
| 2026-05-05 15:33 | 59.41731 | 24.80440 | 162 ft | 8 kts | 298° |
| 2026-05-05 15:33 | 59.41745 | 24.80318 | 162 ft | 10 kts | 281° |
| 2026-05-05 15:33 | 59.41746 | 24.80208 | 162 ft | 5 kts | 249° |
| 2026-05-05 15:34 | 59.41715 | 24.80194 | 162 ft | 4 kts | 182° |
| 2026-05-05 15:34 | 59.41697 | 24.80194 | 162 ft | 0 kts | 180° |
| 2026-05-05 15:35 | 59.41694 | 24.80194 | 162 ft | 0 kts | 180° |